Latest Weather Observations for Cultana (Defence)

IDS60801

Issued at 5:21 pm CST Tuesday 20 April 2021 (issued every 10 minutes, with the page automatically refreshed every 10 minutes)

About weather observations | Map of weather stations | Latest weather observations for SA | Other Formats
Station Details ID: 018229 Name: CULTANA (DEFENCE) Lat: -32.68 Lon: 137.37 Height: 171.0 m
Data from the previous 72 hours. | See also: Recent months at Cultana (Defence)
Date/Time
CST
Temp
°C
App
Temp
°C
Dew
Point
°C
Rel
Hum
%
Delta-T
°C
Wind Press
QNH
hPa
Press
MSL
hPa
Rain since
9am
mm
Dir  Spd
km/h
Gust
km/h
Spd
kts
Gust
kts
20/05:00pm 16.6 11.8 10.2 66 3.4 S 26 35 14 19 - - 0.0
20/04:30pm 16.7 13.4 12.8 78 2.2 SSW 22 30 12 16 - - 0.0
20/04:00pm 15.3 11.6 13.8 91 0.8 SSW 26 33 14 18 - - 0.0
20/03:30pm 16.9 11.0 12.4 75 2.5 S 35 48 19 26 - - 0.0
20/03:00pm 16.1 9.3 13.2 83 1.6 S 41 50 22 27 - - 0.0
20/02:30pm 17.8 10.6 12.0 69 3.2 SSW 41 54 22 29 - - 0.0
20/02:00pm 20.6 12.7 10.7 53 5.4 SW 43 52 23 28 - - 0.0
20/01:59pm 20.5 12.5 10.6 53 5.4 SW 43 52 23 28 - - 0.0
20/01:30pm 22.4 15.6 7.0 37 8.0 WSW 32 44 17 24 - - 0.0
20/01:00pm 23.3 17.7 7.0 35 8.5 WSW 26 37 14 20 - - 0.0
20/12:30pm 22.6 15.8 6.8 36 8.2 WSW 32 41 17 22 - - 0.0
20/12:00pm 22.0 16.0 7.0 38 7.8 WSW 28 41 15 22 - - 0.0
20/11:30am 21.1 15.6 9.0 46 6.5 W 28 39 15 21 - - 0.0
20/11:00am 20.8 14.5 9.1 47 6.3 W 32 39 17 21 - - 0.0
20/10:30am 20.0 13.5 8.0 46 6.3 W 32 39 17 21 - - 0.0
20/10:00am 19.1 13.1 8.7 51 5.5 W 30 37 16 20 - - 0.0
20/09:30am 18.4 13.2 8.9 54 5.0 W 26 33 14 18 - - 0.0
20/09:00am 17.1 13.3 7.5 53 4.9 WNW 17 22 9 12 - - 0.0
20/08:30am 15.6 12.3 6.3 54 4.6 NW 13 19 7 10 - - 0.0
20/08:00am 13.2 10.8 5.1 58 3.8 WNW 7 11 4 6 - - 0.0
20/07:30am 12.9 8.5 4.8 58 3.8 WSW 17 20 9 11 - - 0.0
20/07:00am 11.4 8.4 4.2 61 3.3 SW 9 15 5 8 - - 0.0
20/06:30am 12.1 8.8 4.3 59 3.6 NW 11 15 6 8 - - 0.0
20/06:00am 12.6 8.6 4.8 59 3.6 N 15 17 8 9 - - 0.0
20/05:30am 11.9 8.2 4.6 61 3.3 N 13 15 7 8 - - 0.0
20/05:00am 12.2 8.9 4.4 59 3.6 N 11 13 6 7 - - 0.0
20/04:30am 11.7 8.3 4.2 60 3.4 N 11 13 6 7 - - 0.0
20/04:00am 11.8 8.5 4.3 60 3.4 NNE 11 15 6 8 - - 0.0
20/03:30am 12.3 10.6 4.0 57 3.8 NNW 2 7 1 4 - - 0.0
20/03:00am 12.6 11.4 4.6 58 3.7 CALM 0 2 0 1 - - 0.0
20/02:30am 13.2 10.9 4.6 56 4.0 WSW 6 6 3 3 - - 0.0
20/02:00am 13.0 10.1 4.4 56 4.0 SW 9 11 5 6 - - 0.0
20/01:30am 12.9 9.6 4.3 56 4.0 SW 11 15 6 8 - - 0.0
20/01:00am 12.9 9.5 4.1 55 4.0 WSW 11 13 6 7 - - 0.0
20/12:30am 13.1 8.2 4.3 55 4.0 WSW 19 20 10 11 - - 0.0
20/12:00am 13.6 8.7 4.2 53 4.3 WSW 19 20 10 11 - - 0.0
 
Date/Time
CST
Temp
°C
App
Temp
°C
Dew
Point
°C
Rel
Hum
%
Delta-T
°C
Wind Press
QNH
hPa
Press
MSL
hPa
Rain since
9am
mm
Dir  Spd
km/h
Gust
km/h
Spd
kts
Gust
kts
19/11:30pm 14.0 8.5 4.0 51 4.6 WSW 22 24 12 13 - - 0.0
19/11:00pm 14.7 9.6 4.1 49 4.9 WSW 20 24 11 13 - - 0.0
19/10:30pm 15.9 10.0 4.0 45 5.6 WSW 24 30 13 16 - - 0.0
19/10:00pm 16.4 11.5 1.7 37 6.6 N 17 20 9 11 - - 0.0
19/09:30pm 16.4 10.8 0.9 35 6.8 N 20 22 11 12 - - 0.0
19/09:00pm 17.0 11.6 1.4 35 7.0 N 19 22 10 12 - - 0.0
19/08:30pm 17.6 12.7 2.0 35 7.1 N 17 19 9 10 - - 0.0
19/08:00pm 18.4 13.5 2.3 34 7.4 NNW 17 17 9 9 - - 0.0
19/07:30pm 18.6 14.1 2.4 34 7.5 NNW 15 17 8 9 - - 0.0
19/07:00pm 18.8 13.9 2.2 33 7.7 NW 17 19 9 10 - - 0.0
19/06:30pm 19.2 14.3 2.1 32 7.9 WNW 17 19 9 10 - - 0.0
19/06:00pm 20.2 15.3 2.1 30 8.4 WNW 17 20 9 11 - - 0.0
19/05:30pm 21.8 15.6 2.0 27 9.3 WNW 24 30 13 16 - - 0.0
19/05:00pm 22.4 18.1 3.5 29 9.2 NNW 15 20 8 11 - - 0.0
19/04:30pm 22.7 18.8 3.3 28 9.4 NNW 13 22 7 12 - - 0.0
19/04:00pm 23.1 18.5 3.6 28 9.5 NNW 17 32 9 17 - - 0.0
19/03:30pm 23.1 19.3 4.1 29 9.4 WNW 13 26 7 14 - - 0.0
19/03:00pm 23.0 17.9 4.0 29 9.4 WNW 20 33 11 18 - - 0.0
19/02:30pm 23.2 18.8 4.7 30 9.2 WNW 17 33 9 18 - - 0.0
19/02:00pm 22.6 17.8 4.6 31 8.9 NW 19 32 10 17 - - 0.0
19/01:30pm 23.0 18.3 5.0 31 9.0 NW 19 30 10 16 - - 0.0
19/01:00pm 22.4 18.4 4.9 32 8.7 WNW 15 28 8 15 - - 0.0
19/12:30pm 22.3 18.4 5.3 33 8.5 NW 15 22 8 12 - - 0.0
19/12:00pm 22.1 17.9 5.9 35 8.2 N 17 28 9 15 - - 0.0
19/11:30am 20.4 17.3 5.6 38 7.4 N 11 20 6 11 - - 0.0
19/11:00am 20.4 16.9 5.6 38 7.4 NNW 13 20 7 11 - - 0.0
19/10:30am 19.8 16.4 5.8 40 7.0 NNE 13 17 7 9 - - 0.0
19/10:00am 18.7 16.3 6.9 46 6.0 NNE 9 17 5 9 - - 0.0
19/09:30am 17.7 15.8 6.9 49 5.4 N 6 9 3 5 - - 0.0
19/09:00am 16.4 15.5 9.1 62 3.8 NE 4 6 2 3 - - 0.0
19/08:30am 13.2 13.1 9.5 78 1.9 CALM 0 0 0 0 - - 0.0
19/08:00am 12.2 12.1 9.4 83 1.4 CALM 0 2 0 1 - - 0.0
19/07:30am 10.8 9.8 8.9 88 0.9 W 4 6 2 3 - - 0.0
19/07:00am 10.8 10.6 9.1 89 0.9 CALM 0 2 0 1 - - 0.0
19/06:30am 11.4 11.1 8.8 84 1.3 CALM 0 0 0 0 - - 0.0
19/06:00am 12.4 11.4 8.9 79 1.8 E 4 6 2 3 - - 0.0
19/05:30am 11.6 10.3 7.7 77 1.9 ESE 4 4 2 2 - - 0.0
19/05:00am 12.2 11.0 8.1 76 2.0 SE 4 4 2 2 - - 0.0
19/04:30am 11.7 10.2 8.6 81 1.5 SSW 6 7 3 4 - - 0.0
19/04:00am 11.5 9.9 8.9 84 1.3 SW 7 9 4 5 - - 0.0
19/03:30am 11.5 10.2 9.1 85 1.2 SW 6 7 3 4 - - 0.0
19/03:00am 12.0 10.8 9.7 86 1.2 SW 6 7 3 4 - - 0.0
19/02:30am 11.9 10.5 9.6 86 1.2 SSW 7 7 4 4 - - 0.0
19/02:00am 11.6 10.1 9.2 85 1.2 S 7 9 4 5 - - 0.0
19/01:30am 11.9 10.4 9.3 84 1.3 SSW 7 9 4 5 - - 0.0
19/01:00am 13.1 11.8 10.1 82 1.6 S 7 7 4 4 - - 0.0
19/12:30am 12.5 11.1 9.5 82 1.5 SSW 7 9 4 5 - - 0.0
19/12:00am 12.4 10.9 9.2 81 1.6 S 7 7 4 4 - - 0.0
 
Date/Time
CST
Temp
°C
App
Temp
°C
Dew
Point
°C
Rel
Hum
%
Delta-T
°C
Wind Press
QNH
hPa
Press
MSL
hPa
Rain since
9am
mm
Dir  Spd
km/h
Gust
km/h
Spd
kts
Gust
kts
18/11:30pm 12.3 10.7 8.6 78 1.9 S 7 9 4 5 - - 0.0
18/11:00pm 13.7 12.4 9.2 74 2.3 SSE 6 7 3 4 - - 0.0
18/10:30pm 14.3 12.2 9.7 74 2.4 SE 11 11 6 6 - - 0.0
18/10:00pm 14.5 12.3 9.5 72 2.6 ESE 11 13 6 7 - - 0.0
18/09:30pm 15.4 13.4 10.2 71 2.7 SE 11 13 6 7 - - 0.0
18/09:00pm 15.2 12.3 9.6 69 2.9 SE 15 17 8 9 - - 0.0
18/08:30pm 14.4 11.4 9.2 71 2.7 SE 15 17 8 9 - - 0.0
18/08:00pm 14.6 11.5 9.0 69 2.9 SE 15 17 8 9 - - 0.0
18/07:30pm 15.0 11.9 8.9 67 3.1 ESE 15 19 8 10 - - 0.0
18/07:00pm 15.3 11.7 8.5 64 3.5 SE 17 22 9 12 - - 0.0
18/06:30pm 15.7 11.7 8.2 61 3.8 SE 19 24 10 13 - - 0.0
18/06:00pm 16.4 12.4 8.4 59 4.1 ESE 19 22 10 12 - - 0.0
18/05:30pm 17.3 13.3 8.2 55 4.7 ESE 19 26 10 14 - - 0.0
18/05:00pm 18.6 16.6 8.6 52 5.2 SE 9 19 5 10 - - 0.0
18/04:30pm 19.2 16.6 7.9 48 5.8 S 11 19 6 10 - - 0.0
18/04:00pm 18.5 16.0 8.2 51 5.3 S 11 20 6 11 - - 0.0
18/03:30pm 18.4 15.7 8.9 54 5.0 SSE 13 20 7 11 - - 0.0
18/03:00pm 18.4 15.5 9.5 56 4.7 SE 15 22 8 12 - - 0.0
18/02:30pm 18.5 15.9 9.3 55 4.9 SE 13 20 7 11 - - 0.0
18/02:00pm 18.4 16.2 9.2 55 4.9 S 11 20 6 11 - - 0.0
18/01:30pm 19.1 17.1 8.7 51 5.5 SW 9 20 5 11 - - 0.0
18/01:00pm 18.4 15.4 9.2 55 4.9 SW 15 24 8 13 - - 0.0
18/12:30pm 18.3 15.6 9.1 55 4.8 WSW 13 26 7 14 - - 0.0
18/12:00pm 18.0 15.3 8.8 55 4.8 SW 13 17 7 9 - - 0.0
18/11:30am 17.9 15.8 8.2 53 5.0 W 9 19 5 10 - - 0.0
18/11:00am 17.3 15.7 8.7 57 4.5 SSW 7 13 4 7 - - 0.0
18/10:30am 17.3 14.9 8.7 57 4.5 WSW 11 15 6 8 - - 0.0
18/10:00am 17.4 14.6 8.5 56 4.6 W 13 17 7 9 - - 0.0
18/09:30am 16.2 13.7 9.6 65 3.5 SW 13 15 7 8 - - 0.0
18/09:00am 16.1 15.2 9.1 63 3.6 WSW 4 7 2 4 - - 0.0
18/08:30am 15.3 12.0 8.1 62 3.6 WSW 15 22 8 12 - - 0.0
18/08:00am 12.3 10.4 9.0 80 1.7 SSW 9 13 5 7 - - 0.0
18/07:30am 11.0 9.1 9.1 88 1.0 SSW 9 11 5 6 - - 0.0
18/07:00am 10.4 8.0 8.7 89 0.8 S 11 13 6 7 - - 0.0
18/06:30am 10.4 8.0 8.7 89 0.8 S 11 11 6 6 - - 0.0
18/06:00am 9.9 7.4 8.3 90 0.8 SSW 11 13 6 7 - - 0.0
18/05:30am 9.3 7.1 7.7 90 0.8 SW 9 11 5 6 - - 0.0
18/05:00am 10.1 8.0 8.4 89 0.8 SW 9 11 5 6 - - 0.0
18/04:30am 9.8 8.0 7.9 88 0.9 SW 7 11 4 6 - - 0.0
18/04:00am 11.4 9.5 9.0 85 1.2 S 9 9 5 5 - - 0.0
18/03:30am 11.2 9.2 8.6 84 1.3 SSE 9 11 5 6 - - 0.0
18/03:00am 11.1 9.1 8.5 84 1.3 S 9 9 5 5 - - 0.0
18/02:30am 10.8 8.6 8.0 83 1.4 S 9 11 5 6 - - 0.0
18/02:00am 10.4 7.8 7.6 83 1.4 S 11 11 6 6 - - 0.0
18/01:30am 11.1 8.9 8.0 81 1.5 SSE 9 11 5 6 - - 0.0
18/01:00am 10.7 8.4 7.6 81 1.5 S 9 11 5 6 - - 0.0
18/12:30am 11.0 9.0 6.9 76 2.0 SSW 7 9 4 5 - - 0.0
18/12:00am 12.6 10.1 8.3 75 2.1 SE 11 13 6 7 - - 0.0
 
Date/Time
CST
Temp
°C
App
Temp
°C
Dew
Point
°C
Rel
Hum
%
Delta-T
°C
Wind Press
QNH
hPa
Press
MSL
hPa
Rain since
9am
mm
Dir  Spd
km/h
Gust
km/h
Spd
kts
Gust
kts
17/11:30pm 13.5 10.0 8.8 73 2.4 SE 17 20 9 11 - - 0.0
17/11:00pm 13.5 10.1 9.2 75 2.2 SSE 17 19 9 10 - - 0.0
17/10:30pm 13.5 10.4 8.8 73 2.4 SSE 15 20 8 11 - - 0.0
17/10:00pm 13.1 10.2 8.2 72 2.5 SSE 13 17 7 9 - - 0.0
17/09:30pm 13.4 10.5 8.0 70 2.7 SSE 13 19 7 10 - - 0.0
17/09:00pm 13.2 10.2 7.6 69 2.8 SSE 13 15 7 8 - - 0.0
17/08:30pm 13.8 10.0 7.6 66 3.1 S 17 20 9 11 - - 0.0
17/08:00pm 14.5 10.7 7.5 63 3.5 S 17 22 9 12 - - 0.0
17/07:30pm 15.0 10.9 8.0 63 3.5 SSE 19 24 10 13 - - 0.0
17/07:00pm 15.4 11.5 8.6 64 3.5 SSE 19 24 10 13 - - 0.0
17/06:30pm 15.8 12.0 9.9 68 3.1 SSE 20 24 11 13 - - 0.0
17/06:00pm 16.4 12.2 9.6 64 3.6 SSE 22 30 12 16 - - 0.0
17/05:30pm 17.3 12.3 9.5 60 4.1 SSE 26 33 14 18 - - 0.0

Other formats

Comma delimited format used in spreadsheet applications
http://www.bom.gov.au/fwo/IDS60801/IDS60801.95683.axf

JavaScript Object Notation format (JSON) in row-major order
http://www.bom.gov.au/fwo/IDS60801/IDS60801.95683.json

Data quality

Most of these data are generated automatically and are frequently updated. Quality checks on data are not normally performed. It is possible for incorrect values to appear. Refer to information at About Latest Weather Observations and please check the disclaimer before using these data.